NCA933 SCFA-SAEZ
Flight info
| Callsign | NCA933 |
|---|---|
| Flight time | N/A |
| Altitude | 27000 |
| Route | VADIX3A VADIX DCT PAGUN DCT CAT UW15 CBA UW24 SNT SNT7X |
| Aircraft | B722/M-SDFGHRWY/C |
Departure
| Time | 2026-04-28 23:00 |
|---|---|
| Airport | Andrés Sabella Gálvez International Airport (SCFA) |
Arrival
| Time | N/A |
|---|---|
| Airport | Ezeiza International Airport - Ministro Pistarini (SAEZ) |
| Time | Latitude | Longitude | Altitude | Speed | Heading |
|---|---|---|---|---|---|
| 2026-04-28 22:55 | -23.43313 | -70.44366 | 473 ft | 0 kts | 186° |
| 2026-04-28 22:59 | -23.43316 | -70.44366 | 473 ft | 6 kts | 186° |
| 2026-04-28 22:59 | -23.43635 | -70.44409 | 451 ft | 91 kts | 186° |
| 2026-04-28 22:59 | -23.44537 | -70.44526 | 561 ft | 152 kts | 187° |
| 2026-04-28 23:00 | -23.45538 | -70.44629 | 1448 ft | 147 kts | 184° |
| 2026-04-28 23:00 | -23.46613 | -70.44524 | 2041 ft | 166 kts | 169° |
| 2026-04-28 23:00 | -23.47847 | -70.44229 | 2496 ft | 200 kts | 166° |
| 2026-04-28 23:00 | -23.49265 | -70.43926 | 3392 ft | 215 kts | 168° |
| 2026-04-28 23:01 | -23.50811 | -70.43618 | 4113 ft | 243 kts | 169° |
| 2026-04-28 23:01 | -23.52541 | -70.43284 | 5020 ft | 262 kts | 169° |
| 2026-04-28 23:01 | -23.54372 | -70.42931 | 5996 ft | 276 kts | 170° |
| 2026-04-28 23:01 | -23.56283 | -70.42585 | 7054 ft | 285 kts | 170° |
| 2026-04-28 23:02 | -23.58258 | -70.42249 | 8137 ft | 291 kts | 170° |
| 2026-04-28 23:02 | -23.60258 | -70.41914 | 9215 ft | 296 kts | 170° |
| 2026-04-28 23:02 | -23.62313 | -70.41565 | 10171 ft | 301 kts | 170° |
| 2026-04-28 23:02 | -23.64345 | -70.41210 | 11248 ft | 302 kts | 169° |
| 2026-04-28 23:03 | -23.66441 | -70.40841 | 12056 ft | 313 kts | 169° |
| 2026-04-28 23:03 | -23.67924 | -70.40578 | 12281 ft | 332 kts | 169° |
| 2026-04-28 23:03 | -23.71142 | -70.39992 | 12967 ft | 358 kts | 169° |
| 2026-04-28 23:03 | -23.72774 | -70.39696 | 13557 ft | 362 kts | 169° |
| 2026-04-28 23:04 | -23.76159 | -70.39083 | 14502 ft | 377 kts | 170° |
| 2026-04-28 23:04 | -23.81339 | -70.38275 | 16507 ft | 379 kts | 174° |
| 2026-04-28 23:04 | -23.83931 | -70.37807 | 17506 ft | 380 kts | 167° |
| 2026-04-28 23:05 | -23.86527 | -70.37165 | 18344 ft | 385 kts | 168° |
| 2026-04-28 23:05 | -23.89187 | -70.36565 | 19118 ft | 390 kts | 169° |
| 2026-04-28 23:05 | -23.91890 | -70.36029 | 19840 ft | 396 kts | 171° |
| 2026-04-28 23:05 | -23.94642 | -70.35497 | 20596 ft | 401 kts | 171° |
| 2026-04-28 23:06 | -23.97405 | -70.34948 | 21324 ft | 405 kts | 171° |
| 2026-04-28 23:06 | -24.00202 | -70.34398 | 22136 ft | 407 kts | 171° |
| 2026-04-28 23:06 | -24.03014 | -70.33863 | 22783 ft | 413 kts | 172° |
| 2026-04-28 23:06 | -24.05872 | -70.33331 | 23465 ft | 417 kts | 172° |
| 2026-04-28 23:07 | -24.08730 | -70.32799 | 24096 ft | 422 kts | 173° |
| 2026-04-28 23:07 | -24.11667 | -70.32254 | 24704 ft | 427 kts | 173° |
| 2026-04-28 23:07 | -24.14606 | -70.31702 | 25322 ft | 431 kts | 173° |
| 2026-04-28 23:07 | -24.17576 | -70.31142 | 25976 ft | 434 kts | 173° |
| 2026-04-28 23:08 | -24.20552 | -70.30579 | 26598 ft | 437 kts | 173° |
| 2026-04-28 23:08 | -24.23580 | -70.30003 | 27208 ft | 441 kts | 173° |
| 2026-04-28 23:08 | -24.26610 | -70.29427 | 27808 ft | 443 kts | 173° |
| 2026-04-28 23:08 | -24.29641 | -70.28857 | 28412 ft | 446 kts | 174° |
| 2026-04-28 23:09 | -24.32760 | -70.28263 | 28972 ft | 450 kts | 173° |
| 2026-04-28 23:09 | -24.35810 | -70.27676 | 29625 ft | 450 kts | 173° |
| 2026-04-28 23:09 | -24.38918 | -70.27074 | 30082 ft | 455 kts | 174° |
| 2026-04-28 23:09 | -24.42092 | -70.26456 | 30479 ft | 462 kts | 174° |
| 2026-04-28 23:10 | -24.45316 | -70.25830 | 30926 ft | 466 kts | 174° |
| 2026-04-28 23:10 | -24.48476 | -70.25208 | 31541 ft | 466 kts | 174° |
| 2026-04-28 23:10 | -24.51673 | -70.24574 | 32219 ft | 463 kts | 175° |
| 2026-04-28 23:10 | -24.54874 | -70.23947 | 32800 ft | 464 kts | 175° |
| 2026-04-28 23:11 | -24.58168 | -70.23298 | 33361 ft | 464 kts | 175° |
| 2026-04-28 23:11 | -24.61357 | -70.22674 | 33952 ft | 464 kts | 175° |
| 2026-04-28 23:11 | -24.64577 | -70.22058 | 34494 ft | 465 kts | 175° |
| 2026-04-28 23:11 | -24.67754 | -70.21468 | 35196 ft | 462 kts | 175° |
| 2026-04-28 23:12 | -24.70914 | -70.20884 | 35986 ft | 457 kts | 175° |
| 2026-04-28 23:12 | -24.74017 | -70.20296 | 36655 ft | 454 kts | 175° |
| 2026-04-28 23:12 | -24.77113 | -70.19586 | 37107 ft | 458 kts | 170° |
| 2026-04-28 23:12 | -24.80185 | -70.18492 | 37501 ft | 461 kts | 163° |
| 2026-04-28 23:13 | -24.83092 | -70.17007 | 37688 ft | 466 kts | 152° |
| 2026-04-28 23:13 | -24.85574 | -70.14670 | 37809 ft | 476 kts | 133° |
| 2026-04-28 23:13 | -24.87347 | -70.11560 | 37892 ft | 485 kts | 116° |
| 2026-04-28 23:13 | -24.88673 | -70.08158 | 38108 ft | 484 kts | 117° |
| 2026-04-28 23:14 | -24.90237 | -70.04878 | 38253 ft | 484 kts | 123° |
| 2026-04-28 23:14 | -24.92092 | -70.01801 | 38336 ft | 484 kts | 130° |
| 2026-04-28 23:14 | -24.94237 | -69.98943 | 38518 ft | 482 kts | 136° |
| 2026-04-28 23:14 | -24.96601 | -69.96353 | 38702 ft | 481 kts | 140° |
| 2026-04-28 23:15 | -25.01640 | -69.91357 | 38675 ft | 485 kts | 141° |
| 2026-04-28 23:15 | -25.04066 | -69.88851 | 38953 ft | 481 kts | 140° |
| 2026-04-28 23:15 | -25.06526 | -69.86261 | 38471 ft | 494 kts | 140° |
| 2026-04-28 23:16 | -25.11516 | -69.80924 | 38348 ft | 506 kts | 136° |
| 2026-04-28 23:16 | -25.13776 | -69.77932 | 38611 ft | 507 kts | 130° |
| 2026-04-28 23:16 | -25.15769 | -69.74775 | 39346 ft | 497 kts | 128° |
| 2026-04-28 23:17 | -25.17810 | -69.71714 | 39925 ft | 490 kts | 131° |
| 2026-04-28 23:17 | -25.19978 | -69.68837 | 39958 ft | 492 kts | 135° |
| 2026-04-28 23:17 | -25.22348 | -69.65987 | 39097 ft | 510 kts | 137° |
| 2026-04-28 23:17 | -25.24817 | -69.63218 | 38928 ft | 511 kts | 138° |
| 2026-04-28 23:18 | -25.27284 | -69.60483 | 39406 ft | 501 kts | 138° |
| 2026-04-28 23:18 | -25.29731 | -69.57717 | 39769 ft | 499 kts | 138° |
| 2026-04-28 23:18 | -25.32127 | -69.54949 | 39552 ft | 507 kts | 137° |
| 2026-04-28 23:18 | -25.34559 | -69.52082 | 39587 ft | 507 kts | 136° |
| 2026-04-28 23:19 | -25.39309 | -69.46316 | 39619 ft | 508 kts | 136° |
| 2026-04-28 23:19 | -25.44044 | -69.40489 | 39608 ft | 511 kts | 136° |
| 2026-04-28 23:20 | -25.48836 | -69.34606 | 39660 ft | 511 kts | 135° |
| 2026-04-28 23:20 | -25.53598 | -69.28798 | 39719 ft | 506 kts | 136° |
| 2026-04-28 23:21 | -25.58308 | -69.23038 | 39706 ft | 501 kts | 136° |
| 2026-04-28 23:21 | -25.62326 | -69.18453 | 39696 ft | 488 kts | 139° |
| 2026-04-28 23:22 | -25.67064 | -69.13253 | 39703 ft | 480 kts | 139° |
| 2026-04-28 23:22 | -25.72672 | -69.07033 | 39718 ft | 478 kts | 139° |
| 2026-04-28 23:23 | -25.76564 | -69.02679 | 39710 ft | 477 kts | 139° |
| 2026-04-28 23:23 | -25.81252 | -68.97429 | 39711 ft | 475 kts | 139° |
| 2026-04-28 23:24 | -25.86685 | -68.91322 | 39711 ft | 473 kts | 139° |
| 2026-04-28 23:24 | -25.91368 | -68.86049 | 39716 ft | 472 kts | 139° |
| 2026-04-28 23:25 | -25.96039 | -68.80783 | 39703 ft | 471 kts | 139° |
| 2026-04-28 23:25 | -26.00681 | -68.75555 | 39720 ft | 469 kts | 138° |
| 2026-04-28 23:26 | -26.05312 | -68.70331 | 39697 ft | 468 kts | 138° |
| 2026-04-28 23:26 | -26.09901 | -68.65107 | 39729 ft | 466 kts | 139° |
| 2026-04-28 23:27 | -26.14443 | -68.59951 | 39741 ft | 465 kts | 139° |
| 2026-04-28 23:27 | -26.19031 | -68.54769 | 39740 ft | 464 kts | 139° |
| 2026-04-28 23:28 | -26.23563 | -68.49641 | 39738 ft | 463 kts | 139° |
| 2026-04-28 23:28 | -26.28130 | -68.44470 | 39760 ft | 462 kts | 139° |
| 2026-04-28 23:29 | -26.32686 | -68.39301 | 39779 ft | 461 kts | 139° |
| 2026-04-28 23:29 | -26.37210 | -68.34160 | 39761 ft | 460 kts | 138° |
| 2026-04-28 23:30 | -26.41700 | -68.29037 | 39758 ft | 459 kts | 138° |
| 2026-04-28 23:30 | -26.46161 | -68.23943 | 39726 ft | 459 kts | 138° |
| 2026-04-28 23:31 | -26.50636 | -68.18837 | 39736 ft | 457 kts | 139° |
| 2026-04-28 23:31 | -26.55044 | -68.13788 | 39760 ft | 456 kts | 139° |
| 2026-04-28 23:32 | -26.59498 | -68.08690 | 39764 ft | 454 kts | 139° |
| 2026-04-28 23:32 | -26.63923 | -68.03622 | 39773 ft | 453 kts | 139° |
| 2026-04-28 23:33 | -26.68358 | -67.98550 | 39781 ft | 452 kts | 139° |
| 2026-04-28 23:33 | -26.72779 | -67.93479 | 39756 ft | 451 kts | 139° |
| 2026-04-28 23:34 | -26.77203 | -67.88391 | 39745 ft | 451 kts | 139° |
| 2026-04-28 23:34 | -26.81656 | -67.83277 | 39707 ft | 450 kts | 140° |
| 2026-04-28 23:35 | -26.86059 | -67.78194 | 39729 ft | 449 kts | 139° |
| 2026-04-28 23:35 | -26.90444 | -67.73145 | 39729 ft | 448 kts | 139° |
| 2026-04-28 23:36 | -26.94841 | -67.68072 | 39723 ft | 447 kts | 139° |
| 2026-04-28 23:36 | -26.98476 | -67.63860 | 39698 ft | 446 kts | 139° |
| 2026-04-28 23:37 | -27.03548 | -67.57980 | 39690 ft | 445 kts | 139° |
| 2026-04-28 23:37 | -27.07156 | -67.53785 | 39683 ft | 444 kts | 139° |
| 2026-04-28 23:38 | -27.12227 | -67.47902 | 39661 ft | 444 kts | 140° |
| 2026-04-28 23:38 | -27.16507 | -67.42940 | 39653 ft | 444 kts | 139° |
| 2026-04-28 23:39 | -27.20872 | -67.37869 | 39639 ft | 444 kts | 140° |
| 2026-04-28 23:39 | -27.25188 | -67.32842 | 39630 ft | 444 kts | 139° |
| 2026-04-28 23:40 | -27.28758 | -67.28677 | 39619 ft | 444 kts | 139° |
| 2026-04-28 23:40 | -27.33055 | -67.23658 | 39611 ft | 443 kts | 139° |
| 2026-04-28 23:41 | -27.38063 | -67.17799 | 39544 ft | 443 kts | 139° |
| 2026-04-28 23:41 | -27.42351 | -67.12781 | 39486 ft | 444 kts | 139° |
| 2026-04-28 23:42 | -27.46674 | -67.07735 | 39397 ft | 445 kts | 139° |
| 2026-04-28 23:42 | -27.48865 | -67.05173 | 39279 ft | 446 kts | 139° |
| 2026-04-28 23:42 | -27.51022 | -67.02639 | 39288 ft | 446 kts | 139° |
| 2026-04-28 23:43 | -27.54615 | -66.98412 | 39196 ft | 446 kts | 139° |
| 2026-04-28 23:43 | -27.59610 | -66.92544 | 39244 ft | 444 kts | 139° |
| 2026-04-28 23:44 | -27.63866 | -66.87517 | 39207 ft | 444 kts | 139° |
| 2026-04-28 23:44 | -27.68160 | -66.82437 | 39192 ft | 443 kts | 140° |
| 2026-04-28 23:45 | -27.72410 | -66.77408 | 39175 ft | 442 kts | 139° |
| 2026-04-28 23:45 | -27.76627 | -66.72433 | 39139 ft | 441 kts | 140° |
| 2026-04-28 23:46 | -27.80169 | -66.68256 | 39110 ft | 441 kts | 140° |
| 2026-04-28 23:46 | -27.84437 | -66.63238 | 39107 ft | 443 kts | 139° |
| 2026-04-28 23:47 | -27.89471 | -66.57283 | 39100 ft | 452 kts | 140° |
| 2026-04-28 23:47 | -27.93755 | -66.52163 | 39002 ft | 445 kts | 139° |
| 2026-04-28 23:48 | -27.95867 | -66.49636 | 39117 ft | 434 kts | 139° |
| 2026-04-28 23:48 | -27.97922 | -66.47176 | 39132 ft | 431 kts | 139° |
| 2026-04-28 23:48 | -28.01386 | -66.43066 | 39087 ft | 430 kts | 140° |
| 2026-04-28 23:49 | -28.06190 | -66.37361 | 39074 ft | 429 kts | 140° |
| 2026-04-28 23:49 | -28.09604 | -66.33301 | 39088 ft | 428 kts | 139° |
| 2026-04-28 23:50 | -28.14383 | -66.27588 | 39111 ft | 426 kts | 139° |
| 2026-04-28 23:50 | -28.18481 | -66.22672 | 39110 ft | 426 kts | 139° |
| 2026-04-28 23:51 | -28.22559 | -66.17780 | 39164 ft | 425 kts | 140° |
| 2026-04-28 23:51 | -28.26601 | -66.12930 | 39169 ft | 424 kts | 140° |
| 2026-04-28 23:52 | -28.30664 | -66.08059 | 39239 ft | 422 kts | 139° |
| 2026-04-28 23:52 | -28.34684 | -66.03251 | 39327 ft | 420 kts | 140° |
| 2026-04-28 23:53 | -28.38693 | -65.98448 | 39284 ft | 420 kts | 139° |
| 2026-04-28 23:53 | -28.42711 | -65.93605 | 39163 ft | 422 kts | 139° |
| 2026-04-28 23:54 | -28.46756 | -65.88722 | 39090 ft | 424 kts | 140° |
| 2026-04-28 23:54 | -28.50817 | -65.83813 | 39017 ft | 431 kts | 139° |
| 2026-04-28 23:55 | -28.54968 | -65.78806 | 38960 ft | 434 kts | 139° |
| 2026-04-28 23:55 | -28.59161 | -65.73975 | 38942 ft | 420 kts | 145° |
| 2026-04-28 23:56 | -28.63138 | -65.70847 | 38972 ft | 417 kts | 155° |
| 2026-04-28 23:56 | -28.69458 | -65.68047 | 38977 ft | 415 kts | 167° |
| 2026-04-28 23:57 | -28.74897 | -65.66071 | 38987 ft | 405 kts | 162° |
| 2026-04-28 23:57 | -28.80057 | -65.63426 | 38963 ft | 406 kts | 156° |
| 2026-04-28 23:58 | -28.85052 | -65.60400 | 38968 ft | 406 kts | 155° |
| 2026-04-28 23:58 | -28.90019 | -65.57386 | 38984 ft | 404 kts | 157° |
| 2026-04-28 23:59 | -28.95051 | -65.54469 | 38966 ft | 403 kts | 158° |
| 2026-04-28 23:59 | -29.00065 | -65.51717 | 38988 ft | 400 kts | 158° |
| 2026-04-29 00:00 | -29.04266 | -65.49442 | 38981 ft | 399 kts | 158° |
| 2026-04-29 00:00 | -29.10119 | -65.46195 | 38955 ft | 398 kts | 158° |
| 2026-04-29 00:01 | -29.15088 | -65.43425 | 38971 ft | 398 kts | 158° |
| 2026-04-29 00:01 | -29.20118 | -65.40618 | 38962 ft | 398 kts | 158° |
| 2026-04-29 00:02 | -29.24273 | -65.38300 | 38956 ft | 398 kts | 158° |
| 2026-04-29 00:02 | -29.30084 | -65.35030 | 38962 ft | 398 kts | 158° |
| 2026-04-29 00:03 | -29.35069 | -65.32232 | 38967 ft | 398 kts | 158° |
| 2026-04-29 00:03 | -29.40071 | -65.29456 | 38965 ft | 398 kts | 157° |
| 2026-04-29 00:04 | -29.45060 | -65.26704 | 38965 ft | 397 kts | 158° |
| 2026-04-29 00:04 | -29.50041 | -65.23916 | 38967 ft | 398 kts | 157° |
| 2026-04-29 00:05 | -29.52408 | -65.22578 | 38954 ft | 397 kts | 157° |
| 2026-04-29 00:05 | -29.57371 | -65.19783 | 38967 ft | 397 kts | 158° |
| 2026-04-29 00:06 | -29.62367 | -65.16988 | 38969 ft | 396 kts | 157° |
| 2026-04-29 00:06 | -29.67314 | -65.14211 | 38960 ft | 396 kts | 157° |
| 2026-04-29 00:07 | -29.71437 | -65.11889 | 38951 ft | 396 kts | 157° |
| 2026-04-29 00:07 | -29.77187 | -65.08652 | 38953 ft | 395 kts | 157° |
| 2026-04-29 00:08 | -29.82134 | -65.05863 | 38946 ft | 394 kts | 156° |
| 2026-04-29 00:08 | -29.87087 | -65.03075 | 38960 ft | 393 kts | 157° |
| 2026-04-29 00:09 | -29.92007 | -65.00305 | 38960 ft | 393 kts | 157° |
| 2026-04-29 00:09 | -29.96913 | -64.97514 | 38945 ft | 393 kts | 156° |
| 2026-04-29 00:10 | -30.01816 | -64.94737 | 38946 ft | 392 kts | 156° |
| 2026-04-29 00:10 | -30.06723 | -64.91943 | 38951 ft | 392 kts | 157° |
| 2026-04-29 00:11 | -30.11594 | -64.89164 | 38967 ft | 392 kts | 157° |
| 2026-04-29 00:12 | -30.18108 | -64.85495 | 38964 ft | 393 kts | 157° |
| 2026-04-29 00:12 | -30.23216 | -64.82607 | 38961 ft | 394 kts | 157° |
| 2026-04-29 00:13 | -30.28174 | -64.79804 | 38965 ft | 395 kts | 158° |
| 2026-04-29 00:13 | -30.32284 | -64.77462 | 38971 ft | 394 kts | 157° |
| 2026-04-29 00:14 | -30.37202 | -64.74641 | 38966 ft | 394 kts | 158° |
| 2026-04-29 00:14 | -30.42925 | -64.71362 | 38973 ft | 394 kts | 157° |
| 2026-04-29 00:15 | -30.47877 | -64.68546 | 38972 ft | 395 kts | 158° |
| 2026-04-29 00:15 | -30.51978 | -64.66186 | 38976 ft | 395 kts | 157° |
| 2026-04-29 00:16 | -30.56915 | -64.63386 | 38972 ft | 395 kts | 157° |
| 2026-04-29 00:16 | -30.61860 | -64.60554 | 38978 ft | 395 kts | 157° |
| 2026-04-29 00:17 | -30.66806 | -64.57685 | 38984 ft | 395 kts | 156° |
| 2026-04-29 00:17 | -30.72542 | -64.54412 | 38991 ft | 395 kts | 157° |
| 2026-04-29 00:18 | -30.77474 | -64.51559 | 39008 ft | 394 kts | 158° |
| 2026-04-29 00:18 | -30.82409 | -64.48737 | 39009 ft | 394 kts | 156° |
| 2026-04-29 00:19 | -30.86504 | -64.46395 | 39000 ft | 394 kts | 157° |
| 2026-04-29 00:19 | -30.92252 | -64.43058 | 38984 ft | 394 kts | 158° |
| 2026-04-29 00:20 | -30.97162 | -64.40212 | 38974 ft | 393 kts | 157° |
| 2026-04-29 00:20 | -31.02044 | -64.37371 | 38983 ft | 393 kts | 157° |
| 2026-04-29 00:21 | -31.06129 | -64.34986 | 38967 ft | 393 kts | 157° |
| 2026-04-29 00:21 | -31.11877 | -64.31635 | 38966 ft | 393 kts | 158° |
| 2026-04-29 00:22 | -31.16812 | -64.28837 | 38956 ft | 394 kts | 157° |
| 2026-04-29 00:22 | -31.21785 | -64.25951 | 38946 ft | 396 kts | 158° |
| 2026-04-29 00:23 | -31.26771 | -64.23029 | 38937 ft | 397 kts | 157° |
| 2026-04-29 00:23 | -31.31667 | -64.20016 | 38934 ft | 401 kts | 152° |
| 2026-04-29 00:24 | -31.35328 | -64.16571 | 38942 ft | 410 kts | 141° |
| 2026-04-29 00:24 | -31.39428 | -64.10279 | 38703 ft | 414 kts | 127° |
| 2026-04-29 00:24 | -31.40706 | -64.07397 | 37332 ft | 401 kts | 124° |
| 2026-04-29 00:25 | -31.41953 | -64.04551 | 35343 ft | 394 kts | 127° |
| 2026-04-29 00:25 | -31.43336 | -64.01867 | 32793 ft | 399 kts | 130° |
| 2026-04-29 00:25 | -31.44965 | -63.99302 | 29772 ft | 416 kts | 133° |
| 2026-04-29 00:25 | -31.46209 | -63.97699 | 27519 ft | 430 kts | 142° |
| 2026-04-29 00:26 | -31.49555 | -63.95519 | 22723 ft | 449 kts | 166° |
| 2026-04-29 00:26 | -31.52541 | -63.95060 | 18967 ft | 457 kts | 182° |
| 2026-04-29 00:26 | -31.54541 | -63.95376 | 16497 ft | 459 kts | 194° |
| 2026-04-29 00:26 | -31.58091 | -63.97506 | 12358 ft | 442 kts | 220° |
| 2026-04-29 00:27 | -31.59948 | -64.00128 | 9893 ft | 423 kts | 242° |
| 2026-04-29 00:27 | -31.60904 | -64.03179 | 7483 ft | 405 kts | 262° |
| 2026-04-29 00:27 | -31.60786 | -64.06417 | 5840 ft | 410 kts | 286° |
| 2026-04-29 00:27 | -31.59595 | -64.09392 | 5124 ft | 399 kts | 308° |
| 2026-04-29 00:28 | -31.57610 | -64.11549 | 5046 ft | 372 kts | 326° |
| 2026-04-29 00:28 | -31.56197 | -64.12632 | 5072 ft | 358 kts | 329° |
| 2026-04-29 00:28 | -31.53453 | -64.14579 | 5072 ft | 333 kts | 330° |
| 2026-04-29 00:28 | -31.51569 | -64.15876 | 4755 ft | 298 kts | 331° |
| 2026-04-29 00:29 | -31.50434 | -64.16663 | 4629 ft | 267 kts | 331° |
| 2026-04-29 00:29 | -31.48528 | -64.18010 | 4814 ft | 221 kts | 331° |
| 2026-04-29 00:29 | -31.47227 | -64.18931 | 4745 ft | 213 kts | 331° |
| 2026-04-29 00:29 | -31.46000 | -64.19804 | 4712 ft | 203 kts | 329° |
| 2026-04-29 00:30 | -31.45207 | -64.20370 | 4673 ft | 196 kts | 336° |
| 2026-04-29 00:30 | -31.43988 | -64.20845 | 4538 ft | 174 kts | 351° |
| 2026-04-29 00:30 | -31.42490 | -64.20663 | 4149 ft | 144 kts | 11° |
| 2026-04-29 00:30 | -31.41573 | -64.20447 | 3761 ft | 135 kts | 0° |
| 2026-04-29 00:31 | -31.40642 | -64.20444 | 3246 ft | 131 kts | 354° |
| 2026-04-29 00:31 | -31.39759 | -64.20613 | 2741 ft | 131 kts | 349° |
| 2026-04-29 00:31 | -31.38845 | -64.20641 | 2322 ft | 136 kts | 6° |
| 2026-04-29 00:31 | -31.37935 | -64.20574 | 2285 ft | 125 kts | 352° |
| 2026-04-29 00:32 | -31.37071 | -64.20679 | 2198 ft | 128 kts | 355° |
| 2026-04-29 00:32 | -31.36145 | -64.20702 | 2155 ft | 133 kts | 355° |
| 2026-04-29 00:32 | -31.35530 | -64.20728 | 2134 ft | 133 kts | 355° |
| 2026-04-29 00:32 | -31.34284 | -64.20787 | 1857 ft | 127 kts | 358° |
| 2026-04-29 00:33 | -31.33437 | -64.20788 | 1698 ft | 122 kts | 354° |
| 2026-04-29 00:33 | -31.32582 | -64.20805 | 1575 ft | 124 kts | 355° |
| 2026-04-29 00:33 | -31.31720 | -64.20822 | 1556 ft | 105 kts | 360° |
| 2026-04-29 00:33 | -31.31329 | -64.20824 | 1566 ft | 21 kts | 360° |
| 2026-04-29 00:34 | -31.31280 | -64.20816 | 1567 ft | 2 kts | 8° |
| 2026-04-29 00:34 | -31.31278 | -64.20834 | 1567 ft | 5 kts | 216° |
| 2026-04-29 00:34 | -31.31345 | -64.20827 | 1565 ft | 4 kts | 187° |
| 2026-04-29 00:34 | -31.31439 | -64.20840 | 1563 ft | 16 kts | 210° |
| 2026-04-29 00:35 | -31.31464 | -64.20931 | 1564 ft | 4 kts | 272° |
| 2026-04-29 00:35 | -31.31463 | -64.20965 | 1565 ft | 4 kts | 272° |
| 2026-04-29 00:35 | -31.31462 | -64.20996 | 1566 ft | 3 kts | 270° |
| 2026-04-29 00:35 | -31.31462 | -64.21027 | 1567 ft | 4 kts | 268° |
| 2026-04-29 00:36 | -31.31463 | -64.21066 | 1567 ft | 5 kts | 272° |
| 2026-04-29 00:36 | -31.31438 | -64.21090 | 1568 ft | 5 kts | 353° |
| 2026-04-29 00:36 | -31.31410 | -64.21107 | 1568 ft | 4 kts | 284° |
| 2026-04-29 00:36 | -31.31407 | -64.21139 | 1570 ft | 2 kts | 272° |
| 2026-04-29 00:37 | -31.31406 | -64.21152 | 1571 ft | 5 kts | 270° |
| 2026-04-29 00:37 | -31.31406 | -64.21159 | 1571 ft | 0 kts | 270° |